الصفحة الرئيسية
METAR-TAF:

METAR-TAF

مطار :

قرطبة، الأرجنتين, الأرجنتين

دائرة عرض: 31-19S, خط طول: 064-13W, ارتفاع: 484 متر

مراقبة الطقس الحالي

تاريخ ووقت الإصدار 38 دقيقة قبل الساعة 05:00UTC
ريح 11 عقدة من الجنوب
درجة الحرارة 15°درجة مئوية
الرطوبة 44%
ضغط 1021 hPa
الرؤية 10 كم أو أكثر
الغيوم لا تقل 1500 م ولا وجود لمزنة ركامية السحاب الأسود

METAR: SACO 190500Z 18011KT CAVOK 15/03 Q1021 NOSIG

زمن: 02:38 (05:38 UTC)

توقعات

تاريخ ووقت الإصدار 6ساعات و 38 دقيقة قبل الساعة 23:00UTC
التوقعات صالحة من19 الساعة 00 UTC إلى 19 الساعة 24 UTC
ريح 5 عقدة من الشمال/الشمال الغربي
الرؤية 10 كم أو أكثر
الغيوم لا تقل 1500 م ولا وجود لمزنة ركامية السحاب الأسود
أصبح
من 19 الساعة 02 UTC إلى 19 الساعة 05 UTC
ريح 5 عقدة من الجنوب الغربي
الرؤية 10 كم أو أكثر
غيوم مفككة على ارتفاع 3000 قدم
أصبح
من 19 الساعة 20 UTC إلى 19 الساعة 23 UTC
ريح 15 عقدة من الجنوب
الرؤية: 5000 متر
غيوم متفرقة على ارتفاع 1000 قدم
ملبد بالغيوم على ارتفاع 2000 قدم
رذاذ,

TAF: SACO 182300Z 1900/1924 34005KT CAVOK TX14/1919Z TN07/1924Z BECMG 1902/1905 23005KT 9999 BKN030 BECMG 1920/1923 18015KT 5000 DZ SCT010 OVC020

أرصاد الطقس والتوقعات من أكثر من 4000 مطار (تقارير الطقس للمطار METAR والتنبؤ بالطقس بالمطارTAF).

المحطات المتاحة هي النقط الصفراء والحمراء على الخريطة.

حرك المؤشر فوق النقطة لمعرفة اسم المحطة.

ثم انقر لمعرفة أرصاد وتوقعات الطقس.

لتغيير الخارطة: اضغط على الأزرار الخضراء مع رمز الصليب الأسود للتكبير. على الزر الأخضر مع شرطة للتصغير، أو على الأسهم الخضراء للخرائط المجاورة.


METAR-TAF: